Fosters, Alabama
Current Conditions -  °F | °C
As of 2:53 PM on Wednesday 26 Nov 2014 (Local Time) from KTCL Reporting Station
Clear Clear  
Wind Chill: 59°   Ceiling: Unl
Heat Index: 59°   Visibility: 10mi
Dew Point: 27°   Wind: 9mph
Humidity: 29%   Direction: 190°S
Pressure: 30.07"   Gusts: NA
Location:  33.09°N, 87.69°W
Report Text: KTCL 262053Z 19008KT 10SM CLR 15/M03 A3007 RMK AO2 SLP182 T01501028 56029
Loading
Personal Weather Stations






























Interactive Weather Map New forecast layout! Learn more

10-Day Weather Forecast

Advertisements
Track Severe Weather on mobile